Time;durP1;ratioP1;P1;durP2;ratioP2;P2;SDS_P1;SDS_P2;PMS_P1;PMS_P2;Temp;Humidity;BMP_temperature;BMP_pressure;BME280_temperature;BME280_humidity;BME280_pressure;Samples;Min_cycle;Max_cycle;Signal;HPM_P1;HPM_P2
2022/06/25 00:00:27;;;;;;;4.53;4.13;;;;;;;20.50;53.84;94766.44;4958277;28;20224;-67
2022/06/25 00:02:52;;;;;;;4.70;4.03;;;;;;;20.31;54.57;94756.75;4967850;28;20248;-69
2022/06/25 00:05:27;;;;;;;6.20;4.50;;;;;;;20.40;54.06;94766.97;4966532;28;20224;-66
2022/06/25 00:07:52;;;;;;;5.03;3.97;;;;;;;20.19;54.90;94749.47;4967380;28;20215;-67
2022/06/25 00:10:18;;;;;;;4.93;4.20;;;;;;;20.23;54.09;94749.84;4968307;28;20610;-66
2022/06/25 00:12:43;;;;;;;4.22;3.85;;;;;;;20.27;53.59;94743.84;4967606;28;20228;-66
2022/06/25 00:15:09;;;;;;;5.10;4.68;;;;;;;20.25;53.80;94739.78;4970194;28;20691;-66
2022/06/25 00:17:34;;;;;;;5.15;4.00;;;;;;;20.31;53.64;94740.75;4980877;28;20231;-66
2022/06/25 00:20:01;;;;;;;4.80;4.28;;;;;;;20.03;54.32;94739.34;4972445;28;20405;-67
2022/06/25 00:22:26;;;;;;;6.65;4.10;;;;;;;20.12;54.11;94727.34;4978274;28;20228;-67
2022/06/25 00:24:52;;;;;;;4.18;3.78;;;;;;;20.34;53.71;94735.81;4973071;28;20255;-67
2022/06/25 00:27:17;;;;;;;4.35;3.95;;;;;;;20.25;53.46;94731.75;4966243;28;20228;-67
2022/06/25 00:29:43;;;;;;;4.65;3.50;;;;;;;20.21;54.20;94727.91;4971638;28;20279;-67
2022/06/25 00:32:09;;;;;;;5.32;3.95;;;;;;;20.04;54.33;94724.94;4966270;28;20657;-67
2022/06/25 00:34:36;;;;;;;4.13;3.78;;;;;;;20.07;54.62;94729.03;4962623;28;20200;-67
2022/06/25 00:37:02;;;;;;;4.32;3.92;;;;;;;19.94;55.18;94736.13;4955632;28;20231;-66
2022/06/25 00:39:27;;;;;;;4.55;4.15;;;;;;;19.86;55.43;94741.72;4972825;28;20251;-67
2022/06/25 00:41:52;;;;;;;4.45;4.03;;;;;;;19.73;56.37;94729.28;4973851;28;20229;-67
2022/06/25 00:44:18;;;;;;;4.65;4.18;;;;;;;19.53;56.66;94728.56;4967368;28;20515;-66
2022/06/25 00:46:49;;;;;;;5.13;3.83;;;;;;;19.74;56.83;94725.56;4967596;28;20209;-67
2022/06/25 00:49:14;;;;;;;6.07;4.10;;;;;;;19.68;56.79;94721.09;4970123;28;20200;-68
2022/06/25 00:51:41;;;;;;;4.45;4.05;;;;;;;20.01;55.73;94712.03;4977259;28;20239;-68
2022/06/25 00:54:10;;;;;;;7.18;4.45;;;;;;;20.08;56.02;94709.34;4953070;28;20220;-68
2022/06/25 00:56:46;;;;;;;4.68;4.10;;;;;;;20.12;55.72;94711.31;4967224;28;20259;-68
2022/06/25 00:59:12;;;;;;;6.50;4.63;;;;;;;20.09;55.92;94722.44;4966068;28;20517;-69
2022/06/25 01:01:38;;;;;;;5.35;4.32;;;;;;;19.97;56.40;94722.34;4971591;28;20208;-69
2022/06/25 01:04:03;;;;;;;4.93;4.53;;;;;;;20.17;56.13;94724.84;4966099;28;20215;-67
2022/06/25 01:06:29;;;;;;;6.60;5.13;;;;;;;20.20;55.96;94719.06;4966972;28;20228;-67
2022/06/25 01:08:56;;;;;;;5.88;5.05;;;;;;;20.20;55.47;94721.72;4978103;28;20785;-68
2022/06/25 01:11:22;;;;;;;5.25;4.75;;;;;;;20.12;55.57;94716.66;4965320;28;20280;-67
2022/06/25 01:13:47;;;;;;;5.32;4.82;;;;;;;20.07;56.02;94723.69;4970345;28;20258;-67
2022/06/25 01:16:13;;;;;;;6.70;5.00;;;;;;;19.82;56.83;94733.31;4968773;28;20231;-67
2022/06/25 01:18:38;;;;;;;9.48;4.63;;;;;;;19.95;56.49;94734.28;4964931;28;20670;-68
2022/06/25 01:21:03;;;;;;;5.28;4.47;;;;;;;20.03;56.19;94728.66;4972850;28;20239;-67
2022/06/25 01:23:30;;;;;;;6.03;4.88;;;;;;;20.15;56.10;94721.56;4973687;28;20598;-68
2022/06/25 01:25:55;;;;;;;8.05;5.00;;;;;;;19.81;57.24;94739.69;4960146;28;20202;-68
2022/06/25 01:28:20;;;;;;;5.20;4.47;;;;;;;19.60;58.26;94738.16;4969131;28;20208;-69
2022/06/25 01:30:46;;;;;;;5.20;4.70;;;;;;;19.64;58.73;94729.72;4979102;28;20286;-68
2022/06/25 01:33:11;;;;;;;6.55;4.80;;;;;;;19.77;58.02;94727.00;4977535;28;20224;-68
2022/06/25 01:35:37;;;;;;;6.05;4.63;;;;;;;19.96;57.42;94727.88;4961157;28;20232;-68
2022/06/25 01:38:02;;;;;;;5.95;4.80;;;;;;;19.95;57.61;94723.59;4966401;28;20599;-67
2022/06/25 01:40:28;;;;;;;5.78;5.00;;;;;;;19.92;57.52;94724.03;4971187;28;20260;-67
2022/06/25 01:43:04;;;;;;;5.68;5.10;;;;;;;19.76;58.21;94738.72;4968965;28;21229;-68
2022/06/25 01:45:34;;;;;;;5.38;4.85;;;;;;;19.67;58.61;94724.78;4968432;28;20219;-68
2022/06/25 01:48:01;;;;;;;7.05;5.38;;;;;;;19.67;58.87;94732.78;4973172;28;20224;-68
2022/06/25 01:50:27;;;;;;;6.45;5.28;;;;;;;19.50;59.49;94729.78;4973776;28;20596;-68
2022/06/25 01:52:53;;;;;;;6.05;5.50;;;;;;;18.82;62.32;94734.78;4971636;28;20203;-68
2022/06/25 01:55:19;;;;;;;6.90;5.97;;;;;;;19.25;61.07;94744.91;4965854;28;20231;-68
2022/06/25 01:57:45;;;;;;;6.78;5.45;;;;;;;19.43;60.61;94744.19;4982123;28;20223;-69
2022/06/25 02:00:18;;;;;;;6.32;5.72;;;;;;;19.44;60.36;94741.31;4964754;28;20227;-68
2022/06/25 02:02:44;;;;;;;8.13;6.07;;;;;;;19.26;60.95;94744.69;4976632;28;20228;-69
2022/06/25 02:05:12;;;;;;;6.20;5.60;;;;;;;18.68;63.22;94742.81;4960798;28;20226;-68
2022/06/25 02:07:38;;;;;;;6.75;6.07;;;;;;;18.68;63.42;94747.31;4958048;28;20262;-68
2022/06/25 02:10:04;;;;;;;8.73;5.80;;;;;;;18.91;63.15;94750.34;4971584;28;20218;-67
2022/06/25 02:12:30;;;;;;;7.50;5.70;;;;;;;19.06;62.06;94755.44;4965225;28;20231;-68
2022/06/25 02:14:55;;;;;;;7.63;6.40;;;;;;;18.60;64.04;94755.50;4966569;28;20228;-68
2022/06/25 02:17:21;;;;;;;7.22;6.32;;;;;;;18.61;63.96;94757.19;4967898;28;20232;-68
2022/06/25 02:19:46;;;;;;;6.38;5.82;;;;;;;18.91;62.86;94758.34;4967525;28;20280;-68
2022/06/25 02:22:14;;;;;;;6.68;6.03;;;;;;;18.84;63.22;94752.22;4982719;28;20220;-68
2022/06/25 02:24:44;;;;;;;6.78;5.70;;;;;;;18.80;63.26;94756.34;4967627;28;20223;-69
2022/06/25 02:27:10;;;;;;;6.15;5.65;;;;;;;18.76;63.04;94743.63;4964403;28;20351;-68
2022/06/25 02:29:35;;;;;;;6.70;6.10;;;;;;;18.55;64.25;94726.03;4975783;28;20609;-69
2022/06/25 02:32:01;;;;;;;7.82;6.07;;;;;;;18.61;64.29;94747.34;4970218;28;20232;-68
2022/06/25 02:34:27;;;;;;;6.75;6.07;;;;;;;18.75;63.46;94752.66;4976729;28;20212;-68
2022/06/25 02:36:52;;;;;;;6.72;6.03;;;;;;;19.09;62.28;94755.00;4968059;28;20770;-68
2022/06/25 02:39:18;;;;;;;7.72;6.30;;;;;;;18.52;64.11;94754.72;4969096;28;20247;-68
2022/06/25 02:41:44;;;;;;;7.20;6.60;;;;;;;18.43;64.96;94769.25;4972141;28;20231;-69
2022/06/25 02:44:10;;;;;;;6.43;5.82;;;;;;;18.62;64.47;94772.13;4970693;28;20215;-68
2022/06/25 02:46:35;;;;;;;8.05;6.20;;;;;;;19.04;63.16;94778.00;4978861;28;20218;-68
2022/06/25 02:49:01;;;;;;;8.98;5.72;;;;;;;19.11;62.79;94776.09;4964423;28;20234;-68
2022/06/25 02:51:26;;;;;;;6.55;5.78;;;;;;;18.98;63.42;94768.16;4951592;28;20227;-70
2022/06/25 02:53:52;;;;;;;6.32;5.57;;;;;;;18.95;63.27;94762.25;4962867;28;20302;-69
2022/06/25 02:59:03;;;;;;;7.28;5.93;;;;;;;19.27;61.53;94766.81;4969708;28;20234;-69
2022/06/25 03:01:29;;;;;;;7.30;6.05;;;;;;;19.34;61.16;94772.94;4963133;28;20211;-68
2022/06/25 03:03:56;;;;;;;6.35;5.75;;;;;;;19.37;61.17;94772.53;4982260;28;20310;-67
2022/06/25 03:06:22;;;;;;;6.03;5.43;;;;;;;19.29;61.47;94764.78;4966517;28;20647;-67
2022/06/25 03:08:48;;;;;;;6.43;5.85;;;;;;;19.36;61.79;94760.25;4968668;28;20224;-67
2022/06/25 03:11:14;;;;;;;8.13;6.65;;;;;;;19.47;61.60;94772.09;4967676;28;20301;-67
2022/06/25 03:13:40;;;;;;;7.78;5.93;;;;;;;19.45;61.55;94768.81;4963863;28;20211;-68
2022/06/25 03:16:07;;;;;;;6.47;5.47;;;;;;;19.48;61.40;94777.19;4974782;28;20204;-68
2022/06/25 03:18:34;;;;;;;7.10;6.60;;;;;;;19.21;62.05;94779.16;4975304;28;20227;-67
2022/06/25 03:20:59;;;;;;;7.78;7.07;;;;;;;19.46;60.96;94765.09;4967609;28;20316;-67
2022/06/25 03:23:25;;;;;;;6.85;6.20;;;;;;;19.49;61.20;94776.16;4959387;28;20222;-67
2022/06/25 03:25:51;;;;;;;6.32;5.70;;;;;;;19.56;61.03;94781.47;4954557;28;20556;-68
2022/06/25 03:28:16;;;;;;;6.22;5.70;;;;;;;19.66;61.05;94778.34;4963723;28;20208;-67
2022/06/25 03:30:42;;;;;;;6.38;5.82;;;;;;;19.67;61.06;94778.13;4965298;28;20674;-68
2022/06/25 03:33:07;;;;;;;7.20;5.95;;;;;;;19.84;60.40;94778.47;4963960;28;20602;-67
2022/06/25 03:35:33;;;;;;;6.53;5.88;;;;;;;19.77;60.20;94767.00;4970857;28;20223;-68
2022/06/25 03:37:58;;;;;;;6.82;6.07;;;;;;;19.83;60.45;94764.31;4968898;28;20227;-67
2022/06/25 03:40:24;;;;;;;8.13;6.05;;;;;;;20.01;60.03;94757.41;4968139;28;20242;-68
2022/06/25 03:42:49;;;;;;;6.43;5.68;;;;;;;20.03;59.77;94758.03;4967315;28;20230;-68
2022/06/25 03:45:15;;;;;;;6.53;5.60;;;;;;;20.01;59.64;94760.09;4968320;28;20219;-68
2022/06/25 03:47:41;;;;;;;7.20;6.50;;;;;;;20.09;59.30;94753.66;4969624;28;20578;-68
2022/06/25 03:50:07;;;;;;;7.97;6.63;;;;;;;20.01;59.58;94754.75;4981044;28;20698;-67
2022/06/25 03:52:34;;;;;;;8.07;5.78;;;;;;;20.01;59.87;94760.88;4971612;28;20255;-68
2022/06/25 03:54:59;;;;;;;7.20;6.43;;;;;;;20.10;59.36;94750.78;4965813;28;20315;-68
2022/06/25 03:57:25;;;;;;;8.77;6.63;;;;;;;20.09;59.35;94757.16;4964113;28;20231;-67
2022/06/25 03:59:51;;;;;;;7.47;6.25;;;;;;;20.02;59.56;94759.03;4954078;28;20224;-67
2022/06/25 04:02:16;;;;;;;6.63;6.05;;;;;;;20.00;59.67;94753.94;4963334;28;20223;-67
2022/06/25 04:04:42;;;;;;;8.80;6.35;;;;;;;20.06;59.64;94752.25;4973599;28;20757;-67
2022/06/25 04:07:07;;;;;;;7.30;6.60;;;;;;;20.04;59.67;94747.09;4971367;28;20207;-67
2022/06/25 04:09:32;;;;;;;9.73;6.72;;;;;;;20.02;59.89;94738.53;4975342;28;20267;-68
2022/06/25 04:11:58;;;;;;;9.15;7.20;;;;;;;20.07;59.94;94758.41;4964752;28;20291;-67
2022/06/25 04:14:23;;;;;;;8.43;7.00;;;;;;;20.18;59.78;94763.88;4974106;28;20219;-67
2022/06/25 04:16:49;;;;;;;7.70;6.97;;;;;;;20.26;59.21;94776.09;4965955;28;20220;-68
2022/06/25 04:19:14;;;;;;;8.15;7.35;;;;;;;20.21;60.67;94770.63;4969743;28;20411;-67
2022/06/25 04:21:40;;;;;;;10.35;7.53;;;;;;;20.28;60.61;94766.84;4949259;28;20243;-68
2022/06/25 04:24:05;;;;;;;9.73;7.93;;;;;;;20.27;61.11;94761.72;4963046;28;20221;-67
2022/06/25 04:26:31;;;;;;;9.20;7.47;;;;;;;20.42;59.95;94762.22;4971291;28;20233;-67
2022/06/25 04:29:08;;;;;;;9.93;7.47;;;;;;;20.47;59.49;94772.22;4953583;28;20290;-68
2022/06/25 04:31:35;;;;;;;8.32;7.50;;;;;;;20.47;59.30;94772.22;4965818;28;20258;-67
2022/06/25 04:34:01;;;;;;;7.95;7.25;;;;;;;20.37;60.09;94775.41;4963686;28;20254;-67
2022/06/25 04:36:27;;;;;;;7.85;7.13;;;;;;;20.39;59.89;94769.84;4973366;28;20742;-67
2022/06/25 04:38:53;;;;;;;8.13;7.15;;;;;;;20.27;60.13;94762.53;4969884;28;20311;-68
2022/06/25 04:41:19;;;;;;;7.93;7.22;;;;;;;20.35;59.94;94758.78;4969172;28;20333;-67
2022/06/25 04:43:44;;;;;;;10.93;7.07;;;;;;;20.42;60.04;94766.72;4972707;28;20205;-68
2022/06/25 04:46:10;;;;;;;8.60;6.80;;;;;;;20.48;59.52;94785.38;4974285;28;20216;-67
2022/06/25 04:48:36;;;;;;;7.47;6.80;;;;;;;20.48;59.66;94785.38;4964339;28;20328;-68
2022/06/25 04:51:01;;;;;;;9.60;7.68;;;;;;;20.47;59.45;94782.91;4969405;28;20278;-67
2022/06/25 04:53:26;;;;;;;8.52;7.82;;;;;;;20.51;59.25;94786.81;4968597;28;20208;-68
2022/06/25 04:55:52;;;;;;;8.57;7.53;;;;;;;20.55;59.44;94777.31;4968836;28;20212;-68
2022/06/25 04:58:17;;;;;;;8.95;7.93;;;;;;;20.34;60.68;94783.88;4969419;28;20217;-67
2022/06/25 05:00:43;;;;;;;11.15;7.90;;;;;;;20.34;60.33;94773.19;4960368;28;20693;-68
2022/06/25 05:03:09;;;;;;;9.38;8.27;;;;;;;20.41;60.58;94783.81;4977772;28;20219;-67
2022/06/25 05:05:35;;;;;;;9.95;9.02;;;;;;;20.56;59.36;94787.00;4967784;28;20220;-68
2022/06/25 05:08:01;;;;;;;11.77;9.07;;;;;;;20.61;59.01;94794.31;4965021;28;20251;-67
2022/06/25 05:10:26;;;;;;;9.05;8.07;;;;;;;20.50;59.66;94809.19;4955406;28;20642;-65
2022/06/25 05:15:37;;;;;;;9.35;8.40;;;;;;;20.63;60.05;94790.41;4956166;28;20313;-65
2022/06/25 05:18:02;;;;;;;9.75;8.70;;;;;;;20.67;59.74;94799.63;4966680;28;20233;-64
2022/06/25 05:20:28;;;;;;;9.57;8.57;;;;;;;20.81;58.72;94791.47;4964723;28;20232;-64
2022/06/25 05:22:53;;;;;;;9.80;8.82;;;;;;;20.84;58.84;94791.03;4970796;28;20231;-64
2022/06/25 05:25:19;;;;;;;10.23;9.23;;;;;;;20.69;59.69;94784.19;4966678;28;20288;-64
2022/06/25 05:27:44;;;;;;;10.63;9.05;;;;;;;20.90;59.10;94795.50;4977006;28;20317;-64
2022/06/25 05:30:10;;;;;;;13.25;9.13;;;;;;;20.93;58.87;94798.56;4950412;28;20228;-64
2022/06/25 05:32:35;;;;;;;10.55;9.45;;;;;;;20.91;58.96;94797.97;4954039;28;20235;-64
2022/06/25 05:35:01;;;;;;;10.38;8.98;;;;;;;20.77;59.25;94799.13;4965535;28;20641;-64
2022/06/25 05:37:26;;;;;;;8.95;8.05;;;;;;;20.79;59.63;94797.03;4956883;28;20276;-65
2022/06/25 05:39:52;;;;;;;9.60;8.80;;;;;;;20.88;59.47;94793.06;4959254;28;20280;-64
2022/06/25 05:42:17;;;;;;;9.65;8.73;;;;;;;20.97;58.58;94784.75;4964246;28;20243;-65
2022/06/25 05:44:43;;;;;;;11.57;8.98;;;;;;;20.97;59.22;94793.56;4964790;28;20235;-65
2022/06/25 05:47:09;;;;;;;9.25;8.35;;;;;;;21.02;58.03;94793.72;4964428;28;20221;-63
2022/06/25 05:49:35;;;;;;;13.82;9.32;;;;;;;20.77;58.58;94800.97;4960767;28;20504;-66
2022/06/25 05:52:00;;;;;;;10.82;9.75;;;;;;;20.87;59.15;94804.78;4959558;28;20890;-65
2022/06/25 05:54:26;;;;;;;9.95;8.88;;;;;;;20.89;59.34;94815.25;4956384;28;20220;-66
2022/06/25 05:56:52;;;;;;;11.55;9.75;;;;;;;20.84;60.63;94813.22;4965659;28;20223;-64
2022/06/25 05:59:17;;;;;;;10.57;9.13;;;;;;;20.97;59.69;94803.47;4963218;28;20230;-64
2022/06/25 06:01:43;;;;;;;10.32;9.13;;;;;;;20.82;60.04;94811.81;4961177;28;20768;-66
2022/06/25 06:04:08;;;;;;;11.02;8.93;;;;;;;20.59;60.86;94807.91;4962709;28;20293;-65
2022/06/25 06:06:34;;;;;;;10.43;9.35;;;;;;;20.96;59.77;94808.00;4959761;28;20300;-66
2022/06/25 06:08:59;;;;;;;9.80;8.88;;;;;;;21.04;59.51;94801.53;4967304;28;20239;-65
2022/06/25 06:11:25;;;;;;;12.23;9.30;;;;;;;21.13;59.40;94803.69;4961458;28;20223;-65
2022/06/25 06:13:50;;;;;;;10.85;9.57;;;;;;;21.24;59.02;94804.00;4958073;28;20573;-66
2022/06/25 06:16:15;;;;;;;10.75;9.73;;;;;;;21.22;58.94;94798.84;4961306;28;20208;-66
2022/06/25 06:18:41;;;;;;;10.25;8.98;;;;;;;21.38;57.74;94812.69;4954661;28;20247;-65
2022/06/25 06:21:06;;;;;;;10.63;8.25;;;;;;;21.36;56.73;94807.56;4953161;28;20219;-64
2022/06/25 06:23:32;;;;;;;8.13;7.43;;;;;;;21.32;57.57;94806.34;4954348;28;20231;-62
2022/06/25 06:25:57;;;;;;;8.35;7.40;;;;;;;21.46;57.05;94802.50;4966332;28;20375;-63
2022/06/25 06:28:22;;;;;;;7.40;6.80;;;;;;;21.29;57.85;94802.28;4969560;28;20200;-63
2022/06/25 06:30:48;;;;;;;8.07;7.43;;;;;;;21.26;57.43;94801.91;4965544;28;20231;-65
2022/06/25 06:33:13;;;;;;;9.30;6.97;;;;;;;21.38;56.32;94808.16;4951357;28;20598;-64
2022/06/25 06:35:39;;;;;;;7.57;6.00;;;;;;;21.39;56.48;94806.31;4967019;28;20229;-64
2022/06/25 06:38:04;;;;;;;10.07;6.20;;;;;;;21.45;56.63;94802.75;4967083;28;20316;-63
2022/06/25 06:40:30;;;;;;;8.00;6.75;;;;;;;21.57;56.18;94798.25;4965270;28;20232;-64
2022/06/25 06:42:56;;;;;;;7.75;6.70;;;;;;;21.70;55.75;94807.97;4965347;28;20316;-63
2022/06/25 06:45:22;;;;;;;7.60;6.90;;;;;;;21.44;56.17;94801.09;4962914;28;20288;-63
2022/06/25 06:47:47;;;;;;;7.85;6.63;;;;;;;21.62;56.64;94794.91;4957779;28;20227;-64
2022/06/25 06:50:13;;;;;;;7.28;6.22;;;;;;;21.73;54.17;94791.47;4976040;28;20741;-63
2022/06/25 06:52:38;;;;;;;6.32;5.72;;;;;;;21.70;55.89;94792.72;4960675;28;20679;-64
2022/06/25 06:55:04;;;;;;;6.65;5.53;;;;;;;22.07;53.76;94794.50;4958442;28;20208;-63
2022/06/25 06:57:34;;;;;;;8.95;5.63;;;;;;;21.91;53.99;94810.16;4956293;28;20212;-65
2022/06/25 07:00:01;;;;;;;7.47;5.00;;;;;;;21.73;53.25;94796.81;4964656;28;20227;-63
2022/06/25 07:02:27;;;;;;;7.82;6.40;;;;;;;21.97;53.13;94803.06;4961141;28;20695;-63
2022/06/25 07:04:53;;;;;;;6.75;6.15;;;;;;;21.73;54.49;94799.50;4956649;28;20205;-63
2022/06/25 07:07:19;;;;;;;6.53;6.00;;;;;;;21.86;54.45;94802.00;4963981;28;20270;-65
2022/06/25 07:09:44;;;;;;;7.93;5.63;;;;;;;21.87;54.26;94802.84;4957896;28;20270;-64
2022/06/25 07:12:10;;;;;;;7.20;5.80;;;;;;;22.10;53.52;94797.53;4960892;28;20236;-64
2022/06/25 07:14:36;;;;;;;8.88;5.88;;;;;;;22.18;52.67;94793.72;4957394;28;20256;-64
2022/06/25 07:17:01;;;;;;;6.80;5.22;;;;;;;22.08;51.56;94796.97;4955447;28;20706;-64
2022/06/25 07:19:27;;;;;;;5.78;5.18;;;;;;;22.14;52.73;94792.56;4962914;28;20204;-64
2022/06/25 07:21:54;;;;;;;6.00;5.43;;;;;;;22.37;52.21;94789.13;4958928;28;20217;-64
2022/06/25 07:24:20;;;;;;;7.45;5.38;;;;;;;22.31;52.22;94792.72;4949566;28;20315;-65
2022/06/25 07:26:46;;;;;;;8.40;4.97;;;;;;;22.45;50.37;94792.31;4952982;28;20221;-64
2022/06/25 07:29:12;;;;;;;6.50;5.90;;;;;;;22.51;50.42;94790.56;4955743;28;20234;-64
2022/06/25 07:31:37;;;;;;;6.30;5.70;;;;;;;22.49;50.97;94789.16;4961759;28;20747;-65
2022/06/25 07:34:03;;;;;;;6.22;5.72;;;;;;;22.50;51.69;94790.78;4963174;28;20286;-65
2022/06/25 07:36:28;;;;;;;6.75;6.13;;;;;;;22.54;52.69;94794.63;4965366;28;20239;-65
2022/06/25 07:38:54;;;;;;;9.25;6.22;;;;;;;22.65;52.53;94791.16;4961774;28;20343;-65
2022/06/25 07:41:20;;;;;;;7.78;6.03;;;;;;;22.86;50.50;94795.94;4961685;28;20645;-65
2022/06/25 07:43:45;;;;;;;7.22;6.40;;;;;;;22.76;50.51;94795.69;4962371;28;20203;-65
2022/06/25 07:46:11;;;;;;;6.80;6.13;;;;;;;22.79;50.33;94805.13;4969914;28;20207;-65
2022/06/25 07:48:37;;;;;;;8.20;6.97;;;;;;;22.99;50.35;94808.31;4960226;28;20240;-65
2022/06/25 07:53:46;;;;;;;6.47;5.72;;;;;;;22.94;51.33;94802.81;4966046;28;20236;-64
2022/06/25 07:56:12;;;;;;;8.65;6.13;;;;;;;23.00;50.93;94790.34;4974646;28;20224;-64
2022/06/25 07:58:38;;;;;;;6.93;6.32;;;;;;;23.14;49.81;94797.09;4965871;28;20230;-65
2022/06/25 08:01:03;;;;;;;7.10;6.50;;;;;;;23.06;51.92;94800.13;4964943;28;20283;-66
2022/06/25 08:03:29;;;;;;;9.25;6.40;;;;;;;23.20;50.22;94798.84;4967358;28;20235;-65
2022/06/25 08:05:56;;;;;;;6.95;6.22;;;;;;;23.34;50.19;94802.09;4964992;28;20232;-66
2022/06/25 08:08:21;;;;;;;10.38;6.38;;;;;;;23.41;50.28;94807.31;4959529;28;20267;-65
2022/06/25 08:10:47;;;;;;;9.20;7.07;;;;;;;23.36;50.63;94802.66;4964545;28;20687;-64
2022/06/25 08:13:12;;;;;;;7.35;6.45;;;;;;;23.22;51.23;94799.41;4972260;28;20620;-66
2022/06/25 08:15:37;;;;;;;7.80;6.55;;;;;;;23.38;51.06;94797.06;4961849;28;20224;-66
2022/06/25 08:18:03;;;;;;;7.40;6.40;;;;;;;23.49;51.21;94798.88;4961509;28;20240;-65
2022/06/25 08:20:28;;;;;;;8.43;7.25;;;;;;;23.46;51.89;94794.00;4961865;28;20292;-65
2022/06/25 08:22:54;;;;;;;8.18;6.63;;;;;;;23.51;50.55;94802.97;4966898;28;20311;-65
2022/06/25 08:25:19;;;;;;;7.43;6.57;;;;;;;23.57;52.05;94798.50;4969549;28;20209;-64
2022/06/25 08:27:47;;;;;;;9.43;7.18;;;;;;;23.60;51.98;94789.97;4967891;28;20224;-65
2022/06/25 08:30:12;;;;;;;9.27;6.32;;;;;;;23.80;50.24;94797.66;4958818;28;20347;-65
2022/06/25 08:32:38;;;;;;;9.27;7.25;;;;;;;23.87;50.29;94792.97;4955178;28;20429;-65
2022/06/25 08:35:04;;;;;;;9.20;8.25;;;;;;;23.89;49.82;94796.22;4971750;28;20227;-65
2022/06/25 08:37:29;;;;;;;9.02;7.50;;;;;;;23.91;49.52;94794.09;4966579;28;21000;-65
2022/06/25 08:39:55;;;;;;;8.32;7.60;;;;;;;23.92;49.74;94785.00;4969244;28;20231;-65
2022/06/25 08:42:20;;;;;;;9.95;7.40;;;;;;;24.03;50.71;94794.06;4964143;28;20217;-65
2022/06/25 08:44:46;;;;;;;10.52;7.32;;;;;;;24.01;48.76;94798.88;4965153;28;20340;-65
2022/06/25 08:47:13;;;;;;;8.38;7.32;;;;;;;24.16;48.96;94795.63;4970898;28;20274;-64
2022/06/25 08:49:38;;;;;;;8.60;7.80;;;;;;;24.32;48.70;94797.50;4967784;28;20259;-67
2022/06/25 08:52:07;;;;;;;11.27;8.27;;;;;;;24.48;47.47;94806.69;4963341;28;20223;-65
2022/06/25 08:54:35;;;;;;;9.82;8.38;;;;;;;24.38;48.37;94801.13;4963274;28;20268;-65
2022/06/25 08:57:01;;;;;;;9.77;8.13;;;;;;;24.64;48.53;94803.19;4966849;28;20656;-65
2022/06/25 08:59:28;;;;;;;14.52;8.63;;;;;;;24.78;48.96;94802.84;4965650;28;20305;-66
2022/06/25 09:01:54;;;;;;;8.38;7.45;;;;;;;24.76;48.78;94791.53;4963059;28;20325;-65
2022/06/25 09:04:19;;;;;;;11.27;8.52;;;;;;;24.86;50.20;94797.09;4964645;28;20819;-65
2022/06/25 09:06:44;;;;;;;8.65;7.85;;;;;;;25.09;48.45;94794.16;4972217;28;20245;-65
2022/06/25 09:09:16;;;;;;;9.00;8.10;;;;;;;25.22;47.53;94794.91;4957221;28;20301;-65
2022/06/25 09:11:56;;;;;;;8.73;7.90;;;;;;;25.26;49.11;94796.03;4965764;28;20234;-65
2022/06/25 09:14:28;;;;;;;9.55;7.75;;;;;;;25.37;48.15;94807.75;4960969;28;20220;-65
2022/06/25 09:17:08;;;;;;;11.23;8.68;;;;;;;25.44;48.58;94811.06;4954855;28;20211;-65
2022/06/25 09:19:40;;;;;;;8.95;8.05;;;;;;;25.46;45.84;94807.06;4957827;28;20223;-66
2022/06/25 09:22:08;;;;;;;9.88;8.07;;;;;;;25.38;46.50;94802.13;4967196;28;20226;-65
2022/06/25 09:24:50;;;;;;;11.95;8.57;;;;;;;25.49;46.51;94798.50;4986920;28;20231;-66
2022/06/25 09:27:37;;;;;;;10.93;8.45;;;;;;;25.57;46.37;94801.81;4970405;28;20229;-65
2022/06/25 09:30:14;;;;;;;9.48;8.48;;;;;;;25.66;46.21;94806.53;4950667;28;20231;-65
2022/06/25 09:32:47;;;;;;;11.50;9.20;;;;;;;25.75;45.14;94796.91;4959797;28;20232;-65
2022/06/25 09:35:14;;;;;;;10.80;8.90;;;;;;;25.85;45.22;94798.13;4960943;28;20232;-65
2022/06/25 09:37:40;;;;;;;11.40;8.43;;;;;;;26.04;45.36;94795.94;4967128;28;20641;-65
2022/06/25 09:40:07;;;;;;;12.75;8.80;;;;;;;26.15;44.25;94800.34;4967137;28;20243;-64
2022/06/25 09:42:34;;;;;;;10.77;8.90;;;;;;;26.36;44.30;94799.47;4974222;28;20574;-65
2022/06/25 09:45:11;;;;;;;9.93;8.63;;;;;;;26.34;45.33;94795.41;4971652;28;20289;-65
2022/06/25 09:47:43;;;;;;;9.82;8.82;;;;;;;26.20;45.91;94789.63;4966420;28;20228;-65
2022/06/25 09:50:11;;;;;;;13.80;9.40;;;;;;;26.30;45.17;94784.31;4962541;28;20221;-64
2022/06/25 09:52:48;;;;;;;10.38;8.60;;;;;;;26.33;44.07;94778.41;4959416;28;20204;-65
2022/06/25 09:55:14;;;;;;;13.43;8.65;;;;;;;26.39;44.22;94773.88;4973270;28;20227;-65
2022/06/25 09:57:41;;;;;;;10.90;8.60;;;;;;;26.51;44.98;94782.63;4974543;28;20299;-65
2022/06/25 10:00:10;;;;;;;11.38;8.93;;;;;;;26.58;44.49;94779.72;4966352;28;20317;-65
2022/06/25 10:02:36;;;;;;;10.43;9.32;;;;;;;26.70;43.83;94777.66;4964278;28;20326;-65
2022/06/25 10:05:03;;;;;;;8.57;7.63;;;;;;;26.76;44.08;94784.72;4960589;28;20240;-65
2022/06/25 10:10:20;;;;;;;12.25;8.40;;;;;;;26.80;42.46;94777.72;4966592;28;20313;-65
2022/06/25 10:12:47;;;;;;;10.18;8.15;;;;;;;26.80;42.96;94782.31;4973886;28;20220;-65
2022/06/25 10:15:16;;;;;;;10.90;8.32;;;;;;;26.92;42.41;94774.03;4964493;28;20223;-66
2022/06/25 10:17:47;;;;;;;13.45;7.97;;;;;;;27.06;42.48;94775.22;4980300;28;20235;-66
2022/06/25 10:20:14;;;;;;;9.38;7.68;;;;;;;27.12;41.38;94779.56;4958993;28;20230;-65
2022/06/25 10:22:41;;;;;;;14.93;8.70;;;;;;;27.17;41.62;94776.91;4964777;28;20199;-64
2022/06/25 10:25:11;;;;;;;12.20;8.75;;;;;;;27.18;40.03;94773.13;4965393;28;20217;-65
2022/06/25 10:27:42;;;;;;;13.45;8.35;;;;;;;27.28;41.04;94769.69;4958655;28;20220;-66
2022/06/25 10:30:08;;;;;;;11.32;7.80;;;;;;;27.35;40.14;94767.56;4959880;28;20323;-66
2022/06/25 10:32:47;;;;;;;11.13;7.35;;;;;;;27.40;38.73;94755.97;4965913;28;20227;-66
2022/06/25 10:35:33;;;;;;;11.27;7.53;;;;;;;27.41;40.12;94749.50;4962928;28;20220;-65
2022/06/25 10:38:04;;;;;;;9.73;7.35;;;;;;;27.63;40.50;94752.81;4956426;28;20236;-63
2022/06/25 10:40:44;;;;;;;10.52;7.63;;;;;;;27.83;40.22;94752.09;4959246;28;20343;-64
2022/06/25 10:43:37;;;;;;;10.40;7.63;;;;;;;27.87;39.85;94746.97;4966993;28;20244;-64
2022/06/25 10:46:30;;;;;;;9.38;6.90;;;;;;;27.94;38.83;94747.53;4964250;28;20282;-66
2022/06/25 10:49:11;;;;;;;11.13;7.35;;;;;;;28.08;39.38;94735.13;4955074;28;20232;-64
2022/06/25 10:51:45;;;;;;;11.13;7.03;;;;;;;28.14;38.74;94742.16;4967897;28;20302;-65
2022/06/25 10:54:14;;;;;;;11.32;7.18;;;;;;;28.29;38.54;94740.56;4959655;28;20223;-64
2022/06/25 10:56:44;;;;;;;10.50;7.20;;;;;;;28.43;39.15;94743.53;4965816;28;20378;-64
2022/06/25 10:59:14;;;;;;;15.43;8.07;;;;;;;28.62;37.82;94741.13;4965947;28;20234;-65
2022/06/25 11:01:39;;;;;;;10.35;7.38;;;;;;;28.69;37.77;94736.25;4960244;28;20199;-65
2022/06/25 11:04:07;;;;;;;13.15;7.63;;;;;;;28.69;37.44;94736.25;4965156;28;20207;-64
2022/06/25 11:06:38;;;;;;;11.30;7.85;;;;;;;28.84;37.80;94725.38;4967999;28;20212;-64
2022/06/25 11:09:16;;;;;;;13.00;6.93;;;;;;;28.98;37.15;94734.56;4964614;28;20603;-66
2022/06/25 11:11:44;;;;;;;10.95;7.80;;;;;;;29.14;37.19;94729.16;4965588;28;20278;-65
2022/06/25 11:14:16;;;;;;;9.07;6.40;;;;;;;29.28;36.93;94727.47;4961360;28;20291;-65
2022/06/25 11:16:43;;;;;;;11.70;7.40;;;;;;;29.55;37.29;94718.16;4968193;28;20282;-65
2022/06/25 11:19:09;;;;;;;10.35;7.03;;;;;;;29.75;36.12;94723.53;4964935;28;20239;-66
2022/06/25 11:21:38;;;;;;;9.73;7.13;;;;;;;29.96;35.72;94721.47;4970882;28;20227;-67
2022/06/25 11:24:07;;;;;;;9.65;7.07;;;;;;;30.18;34.71;94712.13;4960554;28;20222;-67
2022/06/25 11:29:23;;;;;;;10.13;7.05;;;;;;;30.12;35.44;94705.91;4956278;28;20371;-68
2022/06/25 11:31:50;;;;;;;7.68;6.97;;;;;;;29.80;37.19;94706.41;4959509;28;20200;-71
2022/06/25 11:34:23;;;;;;;8.38;7.10;;;;;;;29.79;35.83;94697.47;4970078;28;20705;-67
2022/06/25 11:37:07;;;;;;;9.77;7.40;;;;;;;29.89;36.24;94697.41;4960200;28;20228;-67
2022/06/25 11:39:33;;;;;;;10.43;7.85;;;;;;;30.25;34.94;94677.38;4960592;28;20240;-67
2022/06/25 11:42:00;;;;;;;12.57;6.95;;;;;;;30.39;34.20;94685.66;4965325;28;20235;-67
2022/06/25 11:44:26;;;;;;;14.13;7.30;;;;;;;30.47;34.48;94683.19;4966390;28;20223;-67